createdAt,value
2017-10-09T00:03:28.394Z,11.10
2017-10-09T00:08:30.934Z,11.10
2017-10-09T00:13:33.500Z,11.10
2017-10-09T00:18:36.038Z,11.10
2017-10-09T00:23:38.590Z,11.00
2017-10-09T00:28:41.152Z,11.10
2017-10-09T00:33:43.694Z,11.00
2017-10-09T00:38:46.243Z,11.00
2017-10-09T00:43:48.790Z,11.00
2017-10-09T00:48:51.348Z,11.00
2017-10-09T00:53:53.908Z,11.00
2017-10-09T00:58:56.464Z,10.90
2017-10-09T01:03:59.782Z,10.90
2017-10-09T01:09:03.095Z,10.90
2017-10-09T01:14:05.647Z,10.90
2017-10-09T01:19:08.192Z,10.90
2017-10-09T01:24:11.518Z,10.90
2017-10-09T01:29:14.079Z,10.80
2017-10-09T01:34:16.627Z,10.90
2017-10-09T01:39:19.183Z,10.80
2017-10-09T01:44:21.719Z,10.80
2017-10-09T01:49:24.274Z,10.80
2017-10-09T01:54:26.821Z,10.80
2017-10-09T01:59:29.359Z,10.80
2017-10-09T02:04:31.933Z,10.80
2017-10-09T02:09:34.471Z,10.80
2017-10-09T02:14:37.012Z,10.80
2017-10-09T02:19:39.568Z,10.80
2017-10-09T02:24:42.114Z,10.80
2017-10-09T02:29:44.672Z,10.80
2017-10-09T02:34:47.218Z,10.80
2017-10-09T02:39:49.755Z,10.80
2017-10-09T02:44:52.311Z,10.80
2017-10-09T02:49:54.894Z,10.80
2017-10-09T02:54:57.452Z,10.80
2017-10-09T03:00:00.011Z,10.80
2017-10-09T03:05:02.580Z,10.80
2017-10-09T03:10:05.870Z,10.80
2017-10-09T03:15:08.436Z,10.70
2017-10-09T03:20:10.987Z,10.80
2017-10-09T03:30:49.931Z,10.70
2017-10-09T03:35:52.797Z,10.80
2017-10-09T03:40:57.044Z,10.80
2017-10-09T03:46:01.299Z,10.70
2017-10-09T03:51:04.180Z,10.70
2017-10-09T03:56:08.335Z,10.70
2017-10-09T04:01:11.251Z,10.70
2017-10-09T04:06:14.658Z,10.80
2017-10-09T04:11:18.415Z,10.70
2017-10-09T04:16:21.395Z,10.70
2017-10-09T04:21:25.755Z,10.70
2017-10-09T04:26:30.100Z,10.70
2017-10-09T04:31:36.076Z,10.70
2017-10-09T04:36:40.363Z,10.70
2017-10-09T04:41:46.338Z,10.70
2017-10-09T04:46:49.406Z,10.70
2017-10-09T04:51:54.431Z,10.70
2017-10-09T04:56:58.709Z,10.70
2017-10-09T05:02:01.393Z,10.70
2017-10-09T05:07:05.031Z,10.60
2017-10-09T05:12:09.225Z,10.60
2017-10-09T05:17:13.609Z,10.60
2017-10-09T05:22:20.521Z,10.60
2017-10-09T05:27:23.581Z,10.60
2017-10-09T05:32:26.956Z,10.60
2017-10-09T05:37:30.217Z,10.60
2017-10-09T05:42:33.691Z,10.60
2017-10-09T05:47:36.612Z,10.60
2017-10-09T05:52:39.901Z,10.60
2017-10-09T05:57:42.830Z,10.50
2017-10-09T06:02:46.195Z,10.60
2017-10-09T06:07:49.974Z,10.60
2017-10-09T06:12:52.769Z,10.50
2017-10-09T06:17:55.635Z,10.60
2017-10-09T06:22:59.741Z,10.60
2017-10-09T06:28:02.395Z,10.60
2017-10-09T06:33:05.648Z,10.60
2017-10-09T06:38:09.143Z,10.60
2017-10-09T06:43:12.050Z,10.60
2017-10-09T06:48:15.500Z,10.70
2017-10-09T06:58:25.221Z,10.80
2017-10-09T07:03:28.103Z,10.90
2017-10-09T07:08:34.021Z,11.00
2017-10-09T07:13:36.858Z,11.10
2017-10-09T07:18:39.538Z,11.20
2017-10-09T07:23:42.447Z,11.30
2017-10-09T07:28:45.734Z,11.40
2017-10-09T07:33:50.110Z,11.40
2017-10-09T07:38:53.344Z,11.50
2017-10-09T07:43:59.512Z,11.50
2017-10-09T07:49:03.720Z,11.60
2017-10-09T07:54:07.884Z,11.60
2017-10-09T07:59:10.783Z,11.70
2017-10-09T08:04:13.664Z,11.80
2017-10-09T08:09:17.885Z,12.00
2017-10-09T08:14:21.188Z,12.30
2017-10-09T08:19:24.538Z,12.60
2017-10-09T08:24:27.418Z,12.90
2017-10-09T08:29:30.791Z,13.10
2017-10-09T08:34:35.336Z,13.30
2017-10-09T08:39:38.226Z,13.60
2017-10-09T08:44:42.503Z,13.90
2017-10-09T08:49:45.402Z,14.10
2017-10-09T08:54:48.769Z,14.20
2017-10-09T08:59:51.489Z,14.20
2017-10-09T09:04:57.905Z,14.30
2017-10-09T09:10:00.879Z,14.40
2017-10-09T09:15:03.560Z,14.50
2017-10-09T09:20:07.020Z,14.70
2017-10-09T09:25:11.385Z,14.80
2017-10-09T09:30:14.430Z,15.00
2017-10-09T09:35:18.677Z,15.30
2017-10-09T09:45:29.680Z,15.30
2017-10-09T09:50:32.278Z,15.30
2017-10-09T09:55:35.646Z,15.20
2017-10-09T10:00:38.292Z,15.10
2017-10-09T10:05:42.548Z,15.00
2017-10-09T10:10:45.890Z,15.00
2017-10-09T10:15:51.947Z,14.90
2017-10-09T10:20:56.217Z,14.80
2017-10-09T10:25:59.521Z,14.80
2017-10-09T10:31:02.194Z,14.80
2017-10-09T10:36:04.884Z,14.70
2017-10-09T10:41:10.844Z,14.70
2017-10-09T10:46:15.037Z,14.70
2017-10-09T10:51:17.981Z,14.60
2017-10-09T10:56:21.686Z,14.50
2017-10-09T11:01:24.663Z,14.50
2017-10-09T11:06:27.964Z,14.40
2017-10-09T11:11:32.214Z,14.50
2017-10-09T11:16:35.611Z,14.50
2017-10-09T11:21:38.499Z,14.50
2017-10-09T11:26:44.869Z,14.60
2017-10-09T11:31:48.176Z,14.60
2017-10-09T11:36:54.114Z,14.60
2017-10-09T11:41:57.006Z,14.60
2017-10-09T11:47:04.155Z,14.60
2017-10-09T11:52:06.868Z,14.60
2017-10-09T11:57:09.585Z,14.60
2017-10-09T12:02:13.028Z,14.60
2017-10-09T12:07:19.082Z,14.60
2017-10-09T12:12:22.024Z,14.60
2017-10-09T12:22:33.253Z,14.50
2017-10-09T12:27:35.949Z,14.50
2017-10-09T12:32:38.879Z,14.40
2017-10-09T12:37:42.272Z,14.40
2017-10-09T12:42:44.940Z,14.30
2017-10-09T12:47:48.337Z,14.40
2017-10-09T12:57:58.510Z,14.60
2017-10-09T13:03:01.411Z,14.70
2017-10-09T13:08:04.808Z,14.80
2017-10-09T13:13:08.565Z,14.90
2017-10-09T13:18:11.473Z,14.90
2017-10-09T13:23:14.829Z,14.90
2017-10-09T13:28:17.681Z,14.90
2017-10-09T13:33:20.633Z,14.90
2017-10-09T13:38:23.532Z,14.90
2017-10-09T13:43:27.796Z,14.90
2017-10-09T13:48:30.780Z,14.80
2017-10-09T13:53:33.794Z,14.70
2017-10-09T13:58:37.193Z,14.70
2017-10-09T14:03:39.926Z,14.60
2017-10-09T14:08:44.069Z,14.50
2017-10-09T14:13:47.405Z,14.40
2017-10-09T14:18:50.805Z,14.40
2017-10-09T14:23:54.465Z,14.20
2017-10-09T14:28:57.171Z,14.20
2017-10-09T14:44:07.229Z,14.20
2017-10-09T14:49:11.465Z,14.30
2017-10-09T14:54:15.594Z,14.40
2017-10-09T14:59:18.370Z,14.40
2017-10-09T15:04:22.785Z,14.50
2017-10-09T15:09:28.014Z,14.50
2017-10-09T15:14:30.661Z,14.50
2017-10-09T15:19:34.045Z,14.50
2017-10-09T15:24:37.320Z,14.50
2017-10-09T15:29:41.605Z,14.40
2017-10-09T15:34:45.121Z,14.40
2017-10-09T15:39:47.948Z,14.30
2017-10-09T15:44:50.903Z,14.20
2017-10-09T15:49:54.267Z,14.10
2017-10-09T15:54:57.129Z,14.00
2017-10-09T16:00:00.396Z,13.90
2017-10-09T16:05:06.442Z,13.80
2017-10-09T16:10:09.247Z,13.70
2017-10-09T16:15:12.616Z,13.70
2017-10-09T16:20:18.641Z,13.60
2017-10-09T16:25:21.575Z,13.50
2017-10-09T16:30:24.631Z,13.40
2017-10-09T16:35:29.580Z,13.30
2017-10-09T16:40:32.298Z,13.20
2017-10-09T16:45:35.700Z,13.10
2017-10-09T16:50:38.985Z,13.00
2017-10-09T16:55:42.309Z,12.90
2017-10-09T17:00:45.828Z,12.80
2017-10-09T17:05:48.783Z,12.70
2017-10-09T17:10:52.953Z,12.70
2017-10-09T17:15:56.429Z,12.50
2017-10-09T17:20:59.389Z,12.50
2017-10-09T17:26:02.934Z,12.40
2017-10-09T17:31:07.513Z,12.40
2017-10-09T17:36:13.878Z,12.30
2017-10-09T17:41:18.273Z,12.30
2017-10-09T17:46:24.317Z,12.20
2017-10-09T17:51:27.721Z,12.20
2017-10-09T17:56:31.052Z,12.20
2017-10-09T18:01:34.587Z,12.20
2017-10-09T18:06:40.537Z,12.10
2017-10-09T18:11:43.440Z,12.10
2017-10-09T18:16:48.144Z,12.00
2017-10-09T18:21:51.785Z,12.00
2017-10-09T18:26:57.890Z,11.90
2017-10-09T18:32:01.314Z,11.90
2017-10-09T18:37:05.513Z,11.90
2017-10-09T18:42:09.740Z,11.80
2017-10-09T18:47:13.344Z,11.80
2017-10-09T18:52:19.535Z,11.70
2017-10-09T18:57:22.836Z,11.70
2017-10-09T19:02:26.210Z,11.70
2017-10-09T19:07:30.123Z,11.60
2017-10-09T19:12:33.003Z,11.60
2017-10-09T19:17:36.459Z,11.50
2017-10-09T19:22:40.684Z,11.50
2017-10-09T19:27:44.065Z,11.50
2017-10-09T19:32:47.373Z,11.50
2017-10-09T19:37:50.505Z,11.50
2017-10-09T19:42:54.820Z,11.40
2017-10-09T19:47:57.673Z,11.40
2017-10-09T19:53:00.396Z,11.40
2017-10-09T19:58:03.855Z,11.40
2017-10-09T20:03:09.898Z,11.30
2017-10-09T20:08:12.610Z,11.30
2017-10-09T20:13:16.137Z,11.30
2017-10-09T20:23:26.425Z,11.30
2017-10-09T20:28:29.786Z,11.30
2017-10-09T20:33:33.967Z,11.30
2017-10-09T20:38:36.910Z,11.30
2017-10-09T20:43:42.908Z,11.20
2017-10-09T20:48:46.475Z,11.20
2017-10-09T20:53:49.758Z,11.20
2017-10-09T20:58:53.944Z,11.20
2017-10-09T21:03:56.824Z,11.20
2017-10-09T21:09:05.010Z,11.20
2017-10-09T21:14:08.393Z,11.20
2017-10-09T21:19:11.296Z,11.20
2017-10-09T21:29:21.001Z,11.10
2017-10-09T21:34:24.439Z,11.10
2017-10-09T21:39:27.493Z,11.10
2017-10-09T21:44:30.866Z,11.10
2017-10-09T21:49:34.996Z,11.10
2017-10-09T21:54:37.583Z,11.10
2017-10-09T21:59:41.845Z,11.10
2017-10-09T22:04:45.240Z,11.00
2017-10-09T22:09:48.582Z,11.00
2017-10-09T22:14:53.622Z,11.00
2017-10-09T22:19:57.914Z,11.00
2017-10-09T22:25:00.849Z,11.00
2017-10-09T22:30:03.492Z,11.00
2017-10-09T22:35:06.837Z,11.00
2017-10-09T22:40:12.885Z,11.00
2017-10-09T22:45:18.891Z,11.00
2017-10-09T23:00:38.529Z,10.90
2017-10-09T23:05:44.612Z,10.90
2017-10-09T23:15:55.629Z,10.90
2017-10-09T23:20:59.765Z,10.90
2017-10-09T23:26:03.080Z,10.90
2017-10-09T23:31:09.029Z,10.90
2017-10-09T23:36:13.196Z,10.80
2017-10-09T23:46:22.926Z,10.80
2017-10-09T23:51:25.798Z,10.80
2017-10-09T23:56:31.795Z,10.80
